sensor_id;sensor_type;location;lat;lon;timestamp;temperature;humidity
42099;DHT22;27758;55.900;8.516;2023-02-12T00:01:30;7.30;99.90
42099;DHT22;27758;55.900;8.516;2023-02-12T00:03:56;7.30;99.90
42099;DHT22;27758;55.900;8.516;2023-02-12T00:06:22;7.30;99.90
42099;DHT22;27758;55.900;8.516;2023-02-12T00:08:49;7.40;99.90
42099;DHT22;27758;55.900;8.516;2023-02-12T00:11:18;7.40;99.90
42099;DHT22;27758;55.900;8.516;2023-02-12T00:13:44;7.40;99.90
42099;DHT22;27758;55.900;8.516;2023-02-12T00:16:13;7.40;99.90
42099;DHT22;27758;55.900;8.516;2023-02-12T00:18:39;7.40;99.90
42099;DHT22;27758;55.900;8.516;2023-02-12T00:21:05;7.40;99.90
42099;DHT22;27758;55.900;8.516;2023-02-12T00:23:34;7.40;99.90
42099;DHT22;27758;55.900;8.516;2023-02-12T00:26:03;7.40;99.90
42099;DHT22;27758;55.900;8.516;2023-02-12T00:28:29;7.40;99.90
42099;DHT22;27758;55.900;8.516;2023-02-12T00:30:55;7.40;99.90
42099;DHT22;27758;55.900;8.516;2023-02-12T00:33:20;7.40;99.90
42099;DHT22;27758;55.900;8.516;2023-02-12T00:35:55;7.40;99.90
42099;DHT22;27758;55.900;8.516;2023-02-12T00:38:20;7.40;99.90
42099;DHT22;27758;55.900;8.516;2023-02-12T00:40:46;7.40;99.90
42099;DHT22;27758;55.900;8.516;2023-02-12T00:43:12;7.40;99.90
42099;DHT22;27758;55.900;8.516;2023-02-12T00:45:37;7.50;99.90
42099;DHT22;27758;55.900;8.516;2023-02-12T00:48:03;7.50;99.90
42099;DHT22;27758;55.900;8.516;2023-02-12T00:50:29;7.50;99.90
42099;DHT22;27758;55.900;8.516;2023-02-12T00:52:55;7.50;99.90
42099;DHT22;27758;55.900;8.516;2023-02-12T00:55:20;7.50;99.90
42099;DHT22;27758;55.900;8.516;2023-02-12T00:57:46;7.60;99.90
42099;DHT22;27758;55.900;8.516;2023-02-12T01:00:13;7.50;99.90
42099;DHT22;27758;55.900;8.516;2023-02-12T01:02:39;7.50;99.90
42099;DHT22;27758;55.900;8.516;2023-02-12T01:05:04;7.50;99.90
42099;DHT22;27758;55.900;8.516;2023-02-12T01:07:30;7.50;99.90
42099;DHT22;27758;55.900;8.516;2023-02-12T01:09:56;7.50;99.90
42099;DHT22;27758;55.900;8.516;2023-02-12T01:12:22;7.50;99.90
42099;DHT22;27758;55.900;8.516;2023-02-12T01:14:47;7.50;99.90
42099;DHT22;27758;55.900;8.516;2023-02-12T01:17:13;7.60;99.90
42099;DHT22;27758;55.900;8.516;2023-02-12T01:19:39;7.50;99.90
42099;DHT22;27758;55.900;8.516;2023-02-12T01:22:04;7.50;99.90
42099;DHT22;27758;55.900;8.516;2023-02-12T01:24:30;7.40;99.90
42099;DHT22;27758;55.900;8.516;2023-02-12T01:26:55;7.40;99.90
42099;DHT22;27758;55.900;8.516;2023-02-12T01:29:21;7.40;99.90
42099;DHT22;27758;55.900;8.516;2023-02-12T01:31:47;7.40;99.90
42099;DHT22;27758;55.900;8.516;2023-02-12T01:34:12;7.50;99.90
42099;DHT22;27758;55.900;8.516;2023-02-12T01:36:38;7.50;99.90
42099;DHT22;27758;55.900;8.516;2023-02-12T01:39:05;7.40;99.90
42099;DHT22;27758;55.900;8.516;2023-02-12T01:41:35;7.50;99.90
42099;DHT22;27758;55.900;8.516;2023-02-12T01:46:38;7.50;99.90
42099;DHT22;27758;55.900;8.516;2023-02-12T01:49:07;7.40;99.90
42099;DHT22;27758;55.900;8.516;2023-02-12T01:51:35;7.40;99.90
42099;DHT22;27758;55.900;8.516;2023-02-12T01:54:04;7.40;99.90
42099;DHT22;27758;55.900;8.516;2023-02-12T01:56:34;7.40;99.90
42099;DHT22;27758;55.900;8.516;2023-02-12T01:59:00;7.40;99.90
42099;DHT22;27758;55.900;8.516;2023-02-12T02:01:28;7.40;99.90
42099;DHT22;27758;55.900;8.516;2023-02-12T02:03:58;7.50;99.90
42099;DHT22;27758;55.900;8.516;2023-02-12T02:06:30;7.50;99.90
42099;DHT22;27758;55.900;8.516;2023-02-12T02:08:56;7.50;99.90
42099;DHT22;27758;55.900;8.516;2023-02-12T02:11:22;7.50;99.90
42099;DHT22;27758;55.900;8.516;2023-02-12T02:14:07;7.50;99.90
42099;DHT22;27758;55.900;8.516;2023-02-12T02:30:36;7.50;99.90
42099;DHT22;27758;55.900;8.516;2023-02-12T02:33:18;7.40;99.90
42099;DHT22;27758;55.900;8.516;2023-02-12T02:35:54;7.40;99.90
42099;DHT22;27758;55.900;8.516;2023-02-12T02:41:14;7.40;99.90
42099;DHT22;27758;55.900;8.516;2023-02-12T02:43:49;7.40;99.90
42099;DHT22;27758;55.900;8.516;2023-02-12T02:46:35;7.40;99.90
42099;DHT22;27758;55.900;8.516;2023-02-12T02:49:09;7.30;99.90
42099;DHT22;27758;55.900;8.516;2023-02-12T02:51:39;7.30;99.90
42099;DHT22;27758;55.900;8.516;2023-02-12T02:54:12;7.30;99.90
42099;DHT22;27758;55.900;8.516;2023-02-12T02:56:43;7.30;99.90
42099;DHT22;27758;55.900;8.516;2023-02-12T02:59:16;7.30;99.90
42099;DHT22;27758;55.900;8.516;2023-02-12T03:01:47;7.30;99.90
42099;DHT22;27758;55.900;8.516;2023-02-12T03:04:19;7.30;99.90
42099;DHT22;27758;55.900;8.516;2023-02-12T03:07:04;7.30;99.90
42099;DHT22;27758;55.900;8.516;2023-02-12T03:10:04;7.30;99.90
42099;DHT22;27758;55.900;8.516;2023-02-12T03:15:23;7.30;99.90
42099;DHT22;27758;55.900;8.516;2023-02-12T03:17:51;7.30;99.90
42099;DHT22;27758;55.900;8.516;2023-02-12T03:20:36;7.30;99.90
42099;DHT22;27758;55.900;8.516;2023-02-12T03:23:10;7.30;99.90
42099;DHT22;27758;55.900;8.516;2023-02-12T03:26:02;7.20;99.90
42099;DHT22;27758;55.900;8.516;2023-02-12T03:28:31;7.20;99.90
42099;DHT22;27758;55.900;8.516;2023-02-12T03:33:53;7.30;99.90
42099;DHT22;27758;55.900;8.516;2023-02-12T03:36:48;7.30;99.90
42099;DHT22;27758;55.900;8.516;2023-02-12T03:39:30;7.20;99.90
42099;DHT22;27758;55.900;8.516;2023-02-12T03:47:03;7.30;99.90
42099;DHT22;27758;55.900;8.516;2023-02-12T03:52:15;7.30;99.90
42099;DHT22;27758;55.900;8.516;2023-02-12T03:54:41;7.30;99.90
42099;DHT22;27758;55.900;8.516;2023-02-12T03:57:13;7.30;99.90
42099;DHT22;27758;55.900;8.516;2023-02-12T03:59:40;7.40;99.90
42099;DHT22;27758;55.900;8.516;2023-02-12T04:02:06;7.40;99.90
42099;DHT22;27758;55.900;8.516;2023-02-12T04:04:33;7.30;99.90
42099;DHT22;27758;55.900;8.516;2023-02-12T04:06:59;7.40;99.90
42099;DHT22;27758;55.900;8.516;2023-02-12T04:09:26;7.30;99.90
42099;DHT22;27758;55.900;8.516;2023-02-12T04:17:56;7.40;99.90
42099;DHT22;27758;55.900;8.516;2023-02-12T04:28:42;7.30;99.90
42099;DHT22;27758;55.900;8.516;2023-02-12T04:34:02;7.30;99.90
42099;DHT22;27758;55.900;8.516;2023-02-12T04:36:34;7.30;99.90
42099;DHT22;27758;55.900;8.516;2023-02-12T04:39:05;7.30;99.90
42099;DHT22;27758;55.900;8.516;2023-02-12T04:41:33;7.40;99.90
42099;DHT22;27758;55.900;8.516;2023-02-12T04:44:16;7.40;99.90
42099;DHT22;27758;55.900;8.516;2023-02-12T04:46:42;7.40;99.90
42099;DHT22;27758;55.900;8.516;2023-02-12T04:49:16;7.40;99.90
42099;DHT22;27758;55.900;8.516;2023-02-12T04:51:42;7.40;99.90
42099;DHT22;27758;55.900;8.516;2023-02-12T04:54:08;7.40;99.90
42099;DHT22;27758;55.900;8.516;2023-02-12T04:56:35;7.40;99.90
42099;DHT22;27758;55.900;8.516;2023-02-12T04:59:00;7.40;99.90
42099;DHT22;27758;55.900;8.516;2023-02-12T05:01:26;7.40;99.90
42099;DHT22;27758;55.900;8.516;2023-02-12T05:03:52;7.40;99.90
42099;DHT22;27758;55.900;8.516;2023-02-12T05:06:18;7.50;99.90
42099;DHT22;27758;55.900;8.516;2023-02-12T05:08:44;7.40;99.90
42099;DHT22;27758;55.900;8.516;2023-02-12T05:11:10;7.40;99.90
42099;DHT22;27758;55.900;8.516;2023-02-12T05:13:36;7.50;99.90
42099;DHT22;27758;55.900;8.516;2023-02-12T05:16:04;7.50;99.90
42099;DHT22;27758;55.900;8.516;2023-02-12T05:18:30;7.40;99.90
42099;DHT22;27758;55.900;8.516;2023-02-12T05:21:01;7.40;99.90
42099;DHT22;27758;55.900;8.516;2023-02-12T05:23:33;7.40;99.90
42099;DHT22;27758;55.900;8.516;2023-02-12T05:26:01;7.40;99.90
42099;DHT22;27758;55.900;8.516;2023-02-12T05:28:28;7.40;99.90
42099;DHT22;27758;55.900;8.516;2023-02-12T05:30:54;7.50;99.90
42099;DHT22;27758;55.900;8.516;2023-02-12T05:33:19;7.50;99.90
42099;DHT22;27758;55.900;8.516;2023-02-12T05:35:45;7.50;99.90
42099;DHT22;27758;55.900;8.516;2023-02-12T05:38:11;7.40;99.90
42099;DHT22;27758;55.900;8.516;2023-02-12T05:40:37;7.40;99.90
42099;DHT22;27758;55.900;8.516;2023-02-12T05:43:04;7.40;99.90
42099;DHT22;27758;55.900;8.516;2023-02-12T05:45:32;7.50;99.90
42099;DHT22;27758;55.900;8.516;2023-02-12T05:47:58;7.50;99.90
42099;DHT22;27758;55.900;8.516;2023-02-12T05:50:23;7.50;99.90
42099;DHT22;27758;55.900;8.516;2023-02-12T05:52:49;7.50;99.90
42099;DHT22;27758;55.900;8.516;2023-02-12T05:55:15;7.50;99.90
42099;DHT22;27758;55.900;8.516;2023-02-12T05:57:41;7.40;99.90
42099;DHT22;27758;55.900;8.516;2023-02-12T06:00:10;7.40;99.90
42099;DHT22;27758;55.900;8.516;2023-02-12T06:02:36;7.40;99.90
42099;DHT22;27758;55.900;8.516;2023-02-12T06:05:02;7.40;99.90
42099;DHT22;27758;55.900;8.516;2023-02-12T06:07:28;7.40;99.90
42099;DHT22;27758;55.900;8.516;2023-02-12T06:09:53;7.40;99.90
42099;DHT22;27758;55.900;8.516;2023-02-12T06:12:20;7.40;99.90
42099;DHT22;27758;55.900;8.516;2023-02-12T06:14:46;7.40;99.90
42099;DHT22;27758;55.900;8.516;2023-02-12T06:17:12;7.40;99.90
42099;DHT22;27758;55.900;8.516;2023-02-12T06:19:38;7.40;99.90
42099;DHT22;27758;55.900;8.516;2023-02-12T06:22:04;7.50;99.90
42099;DHT22;27758;55.900;8.516;2023-02-12T06:24:30;7.50;99.90
42099;DHT22;27758;55.900;8.516;2023-02-12T06:26:56;7.50;99.90
42099;DHT22;27758;55.900;8.516;2023-02-12T06:29:22;7.50;99.90
42099;DHT22;27758;55.900;8.516;2023-02-12T06:31:48;7.50;99.90
42099;DHT22;27758;55.900;8.516;2023-02-12T06:34:14;7.50;99.90
42099;DHT22;27758;55.900;8.516;2023-02-12T06:36:44;7.50;99.90
42099;DHT22;27758;55.900;8.516;2023-02-12T06:39:12;7.50;99.90
42099;DHT22;27758;55.900;8.516;2023-02-12T06:41:38;7.50;99.90
42099;DHT22;27758;55.900;8.516;2023-02-12T06:44:04;7.50;99.90
42099;DHT22;27758;55.900;8.516;2023-02-12T06:46:30;7.50;99.90
42099;DHT22;27758;55.900;8.516;2023-02-12T06:48:58;7.50;99.90
42099;DHT22;27758;55.900;8.516;2023-02-12T06:51:25;7.50;99.90
42099;DHT22;27758;55.900;8.516;2023-02-12T06:53:52;7.50;99.90
42099;DHT22;27758;55.900;8.516;2023-02-12T06:56:20;7.50;99.90
42099;DHT22;27758;55.900;8.516;2023-02-12T06:58:55;7.50;99.90
42099;DHT22;27758;55.900;8.516;2023-02-12T07:01:23;7.50;99.90
42099;DHT22;27758;55.900;8.516;2023-02-12T07:03:55;7.50;99.90
42099;DHT22;27758;55.900;8.516;2023-02-12T07:06:22;7.60;99.90
42099;DHT22;27758;55.900;8.516;2023-02-12T07:08:49;7.50;99.90
42099;DHT22;27758;55.900;8.516;2023-02-12T07:11:15;7.60;99.90
42099;DHT22;27758;55.900;8.516;2023-02-12T07:13:42;7.60;99.90
42099;DHT22;27758;55.900;8.516;2023-02-12T07:16:11;7.50;99.90
42099;DHT22;27758;55.900;8.516;2023-02-12T07:18:37;7.60;99.90
42099;DHT22;27758;55.900;8.516;2023-02-12T07:21:04;7.50;99.90
42099;DHT22;27758;55.900;8.516;2023-02-12T07:23:31;7.60;99.90
42099;DHT22;27758;55.900;8.516;2023-02-12T07:25:59;7.60;99.90
42099;DHT22;27758;55.900;8.516;2023-02-12T07:28:25;7.60;99.90
42099;DHT22;27758;55.900;8.516;2023-02-12T07:30:52;7.60;99.90
42099;DHT22;27758;55.900;8.516;2023-02-12T07:33:18;7.70;99.90
42099;DHT22;27758;55.900;8.516;2023-02-12T07:35:44;7.60;99.90
42099;DHT22;27758;55.900;8.516;2023-02-12T07:38:10;7.60;99.90
42099;DHT22;27758;55.900;8.516;2023-02-12T07:40:36;7.60;99.90
42099;DHT22;27758;55.900;8.516;2023-02-12T07:43:01;7.70;99.90
42099;DHT22;27758;55.900;8.516;2023-02-12T07:45:27;7.70;99.90
42099;DHT22;27758;55.900;8.516;2023-02-12T07:47:53;7.70;99.90
42099;DHT22;27758;55.900;8.516;2023-02-12T07:50:18;7.70;99.90
42099;DHT22;27758;55.900;8.516;2023-02-12T07:52:45;7.70;99.90
42099;DHT22;27758;55.900;8.516;2023-02-12T07:55:12;7.70;99.90
42099;DHT22;27758;55.900;8.516;2023-02-12T07:57:38;7.80;99.90
42099;DHT22;27758;55.900;8.516;2023-02-12T08:00:04;7.80;99.90
42099;DHT22;27758;55.900;8.516;2023-02-12T08:02:30;7.80;99.90
42099;DHT22;27758;55.900;8.516;2023-02-12T08:04:56;7.80;99.90
42099;DHT22;27758;55.900;8.516;2023-02-12T08:07:22;7.80;99.90
42099;DHT22;27758;55.900;8.516;2023-02-12T08:09:48;7.90;99.90
42099;DHT22;27758;55.900;8.516;2023-02-12T08:12:14;7.90;99.90
42099;DHT22;27758;55.900;8.516;2023-02-12T08:14:40;7.90;99.90
42099;DHT22;27758;55.900;8.516;2023-02-12T08:17:05;7.90;99.90
42099;DHT22;27758;55.900;8.516;2023-02-12T08:19:33;7.90;99.90
42099;DHT22;27758;55.900;8.516;2023-02-12T08:21:59;8.00;99.90
42099;DHT22;27758;55.900;8.516;2023-02-12T08:24:28;8.00;99.90
42099;DHT22;27758;55.900;8.516;2023-02-12T08:26:55;8.00;99.90
42099;DHT22;27758;55.900;8.516;2023-02-12T08:29:24;8.00;99.90
42099;DHT22;27758;55.900;8.516;2023-02-12T08:31:55;8.00;99.90
42099;DHT22;27758;55.900;8.516;2023-02-12T08:34:23;8.10;99.90
42099;DHT22;27758;55.900;8.516;2023-02-12T08:36:51;8.10;99.90
42099;DHT22;27758;55.900;8.516;2023-02-12T08:39:18;8.10;99.90
42099;DHT22;27758;55.900;8.516;2023-02-12T08:41:45;8.20;99.90
42099;DHT22;27758;55.900;8.516;2023-02-12T08:44:11;8.20;99.90
42099;DHT22;27758;55.900;8.516;2023-02-12T08:46:44;8.20;99.90
42099;DHT22;27758;55.900;8.516;2023-02-12T08:49:13;8.30;99.90
42099;DHT22;27758;55.900;8.516;2023-02-12T08:51:43;8.20;99.90
42099;DHT22;27758;55.900;8.516;2023-02-12T08:54:12;8.30;99.90
42099;DHT22;27758;55.900;8.516;2023-02-12T08:56:41;8.30;99.90
42099;DHT22;27758;55.900;8.516;2023-02-12T08:59:10;8.40;99.90
42099;DHT22;27758;55.900;8.516;2023-02-12T09:01:37;8.40;99.90
42099;DHT22;27758;55.900;8.516;2023-02-12T09:04:04;8.40;99.90
42099;DHT22;27758;55.900;8.516;2023-02-12T09:06:33;8.50;99.90
42099;DHT22;27758;55.900;8.516;2023-02-12T09:08:59;8.50;99.90
42099;DHT22;27758;55.900;8.516;2023-02-12T09:11:26;8.50;99.90
42099;DHT22;27758;55.900;8.516;2023-02-12T09:13:59;8.50;99.90
42099;DHT22;27758;55.900;8.516;2023-02-12T09:16:27;8.60;99.90
42099;DHT22;27758;55.900;8.516;2023-02-12T09:18:53;8.60;99.90
42099;DHT22;27758;55.900;8.516;2023-02-12T09:21:19;8.70;99.90
42099;DHT22;27758;55.900;8.516;2023-02-12T09:23:46;8.70;99.90
42099;DHT22;27758;55.900;8.516;2023-02-12T09:26:14;8.70;99.90
42099;DHT22;27758;55.900;8.516;2023-02-12T09:28:41;8.60;99.90
42099;DHT22;27758;55.900;8.516;2023-02-12T09:31:12;8.60;99.90
42099;DHT22;27758;55.900;8.516;2023-02-12T09:33:38;8.70;99.90
42099;DHT22;27758;55.900;8.516;2023-02-12T09:36:07;8.70;99.90
42099;DHT22;27758;55.900;8.516;2023-02-12T09:38:33;8.70;99.90
42099;DHT22;27758;55.900;8.516;2023-02-12T09:46:02;8.80;99.90
42099;DHT22;27758;55.900;8.516;2023-02-12T09:51:07;8.90;99.90
42099;DHT22;27758;55.900;8.516;2023-02-12T09:53:37;9.00;99.90
42099;DHT22;27758;55.900;8.516;2023-02-12T09:56:12;9.00;99.90
42099;DHT22;27758;55.900;8.516;2023-02-12T09:58:48;9.10;99.90
42099;DHT22;27758;55.900;8.516;2023-02-12T10:01:20;9.10;99.90
42099;DHT22;27758;55.900;8.516;2023-02-12T10:03:49;9.20;99.90
42099;DHT22;27758;55.900;8.516;2023-02-12T10:06:21;9.10;99.90
42099;DHT22;27758;55.900;8.516;2023-02-12T10:17:28;9.10;99.90
42099;DHT22;27758;55.900;8.516;2023-02-12T10:25:58;8.90;99.90
42099;DHT22;27758;55.900;8.516;2023-02-12T10:28:34;8.90;99.90
42099;DHT22;27758;55.900;8.516;2023-02-12T10:31:13;9.00;99.90
42099;DHT22;27758;55.900;8.516;2023-02-12T10:33:46;9.00;99.90
42099;DHT22;27758;55.900;8.516;2023-02-12T10:44:56;9.00;99.90
42099;DHT22;27758;55.900;8.516;2023-02-12T10:47:23;9.00;99.90
42099;DHT22;27758;55.900;8.516;2023-02-12T10:49:57;9.00;99.90
42099;DHT22;27758;55.900;8.516;2023-02-12T10:57:54;9.00;99.90
42099;DHT22;27758;55.900;8.516;2023-02-12T11:00:29;8.90;99.90
42099;DHT22;27758;55.900;8.516;2023-02-12T11:05:29;9.00;99.90
42099;DHT22;27758;55.900;8.516;2023-02-12T11:07:56;9.00;99.90
42099;DHT22;27758;55.900;8.516;2023-02-12T11:10:30;9.00;99.90
42099;DHT22;27758;55.900;8.516;2023-02-12T11:12:59;9.00;99.90
42099;DHT22;27758;55.900;8.516;2023-02-12T11:15:29;9.00;99.90
42099;DHT22;27758;55.900;8.516;2023-02-12T11:18:00;9.10;99.90
42099;DHT22;27758;55.900;8.516;2023-02-12T11:20:37;9.10;99.90
42099;DHT22;27758;55.900;8.516;2023-02-12T11:23:05;9.10;99.90
42099;DHT22;27758;55.900;8.516;2023-02-12T11:25:35;9.10;99.90
42099;DHT22;27758;55.900;8.516;2023-02-12T11:28:18;9.10;99.90
42099;DHT22;27758;55.900;8.516;2023-02-12T11:30:53;9.10;99.90
42099;DHT22;27758;55.900;8.516;2023-02-12T11:36:20;9.10;99.90
42099;DHT22;27758;55.900;8.516;2023-02-12T11:38:57;9.10;99.90
42099;DHT22;27758;55.900;8.516;2023-02-12T11:41:37;9.20;99.90
42099;DHT22;27758;55.900;8.516;2023-02-12T11:44:24;9.30;99.90
42099;DHT22;27758;55.900;8.516;2023-02-12T11:47:06;9.30;99.90
42099;DHT22;27758;55.900;8.516;2023-02-12T11:50:17;9.20;99.90
42099;DHT22;27758;55.900;8.516;2023-02-12T11:52:48;9.20;99.90
42099;DHT22;27758;55.900;8.516;2023-02-12T11:55:27;9.30;99.90
42099;DHT22;27758;55.900;8.516;2023-02-12T12:00:44;9.20;99.90
42099;DHT22;27758;55.900;8.516;2023-02-12T12:03:15;9.20;99.90
42099;DHT22;27758;55.900;8.516;2023-02-12T12:05:51;9.20;99.90
42099;DHT22;27758;55.900;8.516;2023-02-12T12:08:27;9.20;99.90
42099;DHT22;27758;55.900;8.516;2023-02-12T12:11:22;9.20;99.90
42099;DHT22;27758;55.900;8.516;2023-02-12T12:17:11;9.10;99.90
42099;DHT22;27758;55.900;8.516;2023-02-12T12:20:09;9.10;99.90
42099;DHT22;27758;55.900;8.516;2023-02-12T12:27:59;8.90;99.90
42099;DHT22;27758;55.900;8.516;2023-02-12T12:32:58;8.90;99.90
42099;DHT22;27758;55.900;8.516;2023-02-12T12:35:36;9.00;99.90
42099;DHT22;27758;55.900;8.516;2023-02-12T12:41:54;9.00;99.90
42099;DHT22;27758;55.900;8.516;2023-02-12T12:53:08;9.00;99.90
42099;DHT22;27758;55.900;8.516;2023-02-12T13:09:52;9.00;99.90
42099;DHT22;27758;55.900;8.516;2023-02-12T13:12:32;8.90;99.90
42099;DHT22;27758;55.900;8.516;2023-02-12T13:23:19;9.00;99.90
42099;DHT22;27758;55.900;8.516;2023-02-12T13:28:33;9.10;99.90
42099;DHT22;27758;55.900;8.516;2023-02-12T13:31:03;9.00;99.90
42099;DHT22;27758;55.900;8.516;2023-02-12T13:33:44;9.00;99.90
42099;DHT22;27758;55.900;8.516;2023-02-12T13:36:13;9.00;99.90
42099;DHT22;27758;55.900;8.516;2023-02-12T13:38:50;9.00;99.90
42099;DHT22;27758;55.900;8.516;2023-02-12T13:41:17;9.00;99.90
42099;DHT22;27758;55.900;8.516;2023-02-12T13:51:42;9.00;99.90
42099;DHT22;27758;55.900;8.516;2023-02-12T13:54:28;9.00;99.90
42099;DHT22;27758;55.900;8.516;2023-02-12T13:57:02;9.00;99.90
42099;DHT22;27758;55.900;8.516;2023-02-12T14:05:02;9.10;99.90
42099;DHT22;27758;55.900;8.516;2023-02-12T14:07:43;9.10;99.90
42099;DHT22;27758;55.900;8.516;2023-02-12T14:12:47;9.00;99.90
42099;DHT22;27758;55.900;8.516;2023-02-12T14:15:34;9.00;99.90
42099;DHT22;27758;55.900;8.516;2023-02-12T14:23:47;9.10;99.90
42099;DHT22;27758;55.900;8.516;2023-02-12T14:26:22;9.10;99.90
42099;DHT22;27758;55.900;8.516;2023-02-12T14:28:57;9.00;99.90
42099;DHT22;27758;55.900;8.516;2023-02-12T14:41:51;9.00;99.90
42099;DHT22;27758;55.900;8.516;2023-02-12T14:46:57;9.00;99.90
42099;DHT22;27758;55.900;8.516;2023-02-12T14:49:43;9.00;99.90
42099;DHT22;27758;55.900;8.516;2023-02-12T14:55:16;8.90;99.90
42099;DHT22;27758;55.900;8.516;2023-02-12T14:57:42;8.90;99.90
42099;DHT22;27758;55.900;8.516;2023-02-12T15:08:51;8.70;99.90
42099;DHT22;27758;55.900;8.516;2023-02-12T15:14:14;8.60;99.90
42099;DHT22;27758;55.900;8.516;2023-02-12T15:16:53;8.60;99.90
42099;DHT22;27758;55.900;8.516;2023-02-12T15:19:43;8.60;99.90
42099;DHT22;27758;55.900;8.516;2023-02-12T15:27:45;8.60;99.90
42099;DHT22;27758;55.900;8.516;2023-02-12T15:30:19;8.60;99.90
42099;DHT22;27758;55.900;8.516;2023-02-12T15:32:47;8.60;99.90
42099;DHT22;27758;55.900;8.516;2023-02-12T15:35:25;8.60;99.90
42099;DHT22;27758;55.900;8.516;2023-02-12T15:37:53;8.60;99.90
42099;DHT22;27758;55.900;8.516;2023-02-12T15:40:20;8.50;99.90
42099;DHT22;27758;55.900;8.516;2023-02-12T15:43:05;8.50;99.90
42099;DHT22;27758;55.900;8.516;2023-02-12T15:45:33;8.50;99.90
42099;DHT22;27758;55.900;8.516;2023-02-12T15:50:35;8.50;99.90
42099;DHT22;27758;55.900;8.516;2023-02-12T15:53:10;8.40;99.90
42099;DHT22;27758;55.900;8.516;2023-02-12T15:55:40;8.40;99.90
42099;DHT22;27758;55.900;8.516;2023-02-12T15:58:22;8.40;99.90
42099;DHT22;27758;55.900;8.516;2023-02-12T16:00:49;8.40;99.90
42099;DHT22;27758;55.900;8.516;2023-02-12T16:03:23;8.40;99.90
42099;DHT22;27758;55.900;8.516;2023-02-12T16:05:50;8.40;99.90
42099;DHT22;27758;55.900;8.516;2023-02-12T16:08:19;8.30;99.90
42099;DHT22;27758;55.900;8.516;2023-02-12T16:10:47;8.30;99.90
42099;DHT22;27758;55.900;8.516;2023-02-12T16:13:19;8.30;99.90
42099;DHT22;27758;55.900;8.516;2023-02-12T16:16:06;8.30;99.90
42099;DHT22;27758;55.900;8.516;2023-02-12T16:18:33;8.30;99.90
42099;DHT22;27758;55.900;8.516;2023-02-12T16:21:04;8.30;99.90
42099;DHT22;27758;55.900;8.516;2023-02-12T16:23:31;8.30;99.90
42099;DHT22;27758;55.900;8.516;2023-02-12T16:25:58;8.30;99.90
42099;DHT22;27758;55.900;8.516;2023-02-12T16:28:27;8.20;99.90
42099;DHT22;27758;55.900;8.516;2023-02-12T16:31:10;8.20;99.90
42099;DHT22;27758;55.900;8.516;2023-02-12T16:36:10;8.10;99.90
42099;DHT22;27758;55.900;8.516;2023-02-12T16:38:55;8.10;99.90
42099;DHT22;27758;55.900;8.516;2023-02-12T16:41:29;8.10;99.90
42099;DHT22;27758;55.900;8.516;2023-02-12T16:46:43;8.10;99.90
42099;DHT22;27758;55.900;8.516;2023-02-12T16:49:18;8.10;99.90
42099;DHT22;27758;55.900;8.516;2023-02-12T16:51:47;8.10;99.90
42099;DHT22;27758;55.900;8.516;2023-02-12T16:54:32;8.10;99.90
42099;DHT22;27758;55.900;8.516;2023-02-12T16:56:59;8.10;99.90
42099;DHT22;27758;55.900;8.516;2023-02-12T16:59:25;8.00;99.90
42099;DHT22;27758;55.900;8.516;2023-02-12T17:02:03;8.00;99.90
42099;DHT22;27758;55.900;8.516;2023-02-12T17:04:29;8.10;99.90
42099;DHT22;27758;55.900;8.516;2023-02-12T17:06:55;8.00;99.90
42099;DHT22;27758;55.900;8.516;2023-02-12T17:09:21;8.00;99.90
42099;DHT22;27758;55.900;8.516;2023-02-12T17:11:46;8.00;99.90
42099;DHT22;27758;55.900;8.516;2023-02-12T17:14:17;8.00;99.90
42099;DHT22;27758;55.900;8.516;2023-02-12T17:16:44;7.90;99.90
42099;DHT22;27758;55.900;8.516;2023-02-12T17:19:10;8.00;99.90
42099;DHT22;27758;55.900;8.516;2023-02-12T17:21:41;8.00;99.90
42099;DHT22;27758;55.900;8.516;2023-02-12T17:24:21;8.00;99.90
42099;DHT22;27758;55.900;8.516;2023-02-12T17:26:48;8.00;99.90
42099;DHT22;27758;55.900;8.516;2023-02-12T17:29:16;8.00;99.90
42099;DHT22;27758;55.900;8.516;2023-02-12T17:31:42;8.00;99.90
42099;DHT22;27758;55.900;8.516;2023-02-12T17:34:08;8.00;99.90
42099;DHT22;27758;55.900;8.516;2023-02-12T17:36:34;8.00;99.90
42099;DHT22;27758;55.900;8.516;2023-02-12T17:39:01;8.00;99.90
42099;DHT22;27758;55.900;8.516;2023-02-12T17:41:26;8.00;99.90
42099;DHT22;27758;55.900;8.516;2023-02-12T17:43:52;7.90;99.90
42099;DHT22;27758;55.900;8.516;2023-02-12T17:46:20;8.00;99.90
42099;DHT22;27758;55.900;8.516;2023-02-12T17:48:46;8.00;99.90
42099;DHT22;27758;55.900;8.516;2023-02-12T17:51:12;7.90;99.90
42099;DHT22;27758;55.900;8.516;2023-02-12T17:53:39;7.90;99.90
42099;DHT22;27758;55.900;8.516;2023-02-12T17:56:12;7.90;99.90
42099;DHT22;27758;55.900;8.516;2023-02-12T17:58:40;7.90;99.90
42099;DHT22;27758;55.900;8.516;2023-02-12T18:01:08;7.90;99.90
42099;DHT22;27758;55.900;8.516;2023-02-12T18:03:34;7.90;99.90
42099;DHT22;27758;55.900;8.516;2023-02-12T18:06:01;7.90;99.90
42099;DHT22;27758;55.900;8.516;2023-02-12T18:08:27;7.90;99.90
42099;DHT22;27758;55.900;8.516;2023-02-12T18:10:53;7.80;99.90
42099;DHT22;27758;55.900;8.516;2023-02-12T18:13:18;7.80;99.90
42099;DHT22;27758;55.900;8.516;2023-02-12T18:15:44;7.80;99.90
42099;DHT22;27758;55.900;8.516;2023-02-12T18:18:10;7.80;99.90
42099;DHT22;27758;55.900;8.516;2023-02-12T18:20:38;7.80;99.90
42099;DHT22;27758;55.900;8.516;2023-02-12T18:23:04;7.80;99.90
42099;DHT22;27758;55.900;8.516;2023-02-12T18:25:31;7.80;99.90
42099;DHT22;27758;55.900;8.516;2023-02-12T18:27:56;7.80;99.90
42099;DHT22;27758;55.900;8.516;2023-02-12T18:30:23;7.80;99.90
42099;DHT22;27758;55.900;8.516;2023-02-12T18:32:48;7.80;99.90
42099;DHT22;27758;55.900;8.516;2023-02-12T18:35:14;7.80;99.90
42099;DHT22;27758;55.900;8.516;2023-02-12T18:37:40;7.80;99.90
42099;DHT22;27758;55.900;8.516;2023-02-12T18:40:07;7.80;99.90
42099;DHT22;27758;55.900;8.516;2023-02-12T18:42:32;7.70;99.90
42099;DHT22;27758;55.900;8.516;2023-02-12T18:44:58;7.70;99.90
42099;DHT22;27758;55.900;8.516;2023-02-12T18:47:24;7.70;99.90
42099;DHT22;27758;55.900;8.516;2023-02-12T18:49:49;7.70;99.90
42099;DHT22;27758;55.900;8.516;2023-02-12T18:52:15;7.70;99.90
42099;DHT22;27758;55.900;8.516;2023-02-12T18:54:41;7.70;99.90
42099;DHT22;27758;55.900;8.516;2023-02-12T18:57:09;7.70;99.90
42099;DHT22;27758;55.900;8.516;2023-02-12T18:59:35;7.70;99.90
42099;DHT22;27758;55.900;8.516;2023-02-12T19:02:04;7.70;99.90
42099;DHT22;27758;55.900;8.516;2023-02-12T19:04:30;7.70;99.90
42099;DHT22;27758;55.900;8.516;2023-02-12T19:06:56;7.70;99.90
42099;DHT22;27758;55.900;8.516;2023-02-12T19:09:24;7.70;99.90
42099;DHT22;27758;55.900;8.516;2023-02-12T19:11:52;7.70;99.90
42099;DHT22;27758;55.900;8.516;2023-02-12T19:14:19;7.70;99.90
42099;DHT22;27758;55.900;8.516;2023-02-12T19:16:45;7.70;99.90
42099;DHT22;27758;55.900;8.516;2023-02-12T19:19:12;7.70;99.90
42099;DHT22;27758;55.900;8.516;2023-02-12T19:21:38;7.60;99.90
42099;DHT22;27758;55.900;8.516;2023-02-12T19:24:05;7.60;99.90
42099;DHT22;27758;55.900;8.516;2023-02-12T19:26:33;7.60;99.90